• Join FlightAware (Why Join?)
  • Login
  • US Flag 
04:13AM EDT


 

Airport Tracker/Info


-or-


 

Live Flight TrackerFlight Track Log ✈ EJA922 ✈ 27-Nov-2013 ✈ KBED - KHPN

Flight Track Log - Related Links

Times and Time Zones

All times are in EST time to prevent confusion due to time zone crossing. See the EJA922 flight status page for this flight to view local times or setup timezone preferences in your user account.

Time Position Orientation Groundspeed Altitude Reporting Facility
EST Latitude Longitude Course Direction KTS MPH feet Rate Location/Type
09:00AM 42.4667 -71.2667 124° Southeast 189 217 1,200  Level KA90
09:00AM 42.4500 -71.2333 124° Southeast 176 203 2,700 2,520 Climbing KA90
09:03AM 42.4106 -71.3767 250° West 197 227 8,500 2,460 Climbing Boston Center
09:04AM 42.3967 -71.4633 258° West 234 269 11,000 2,520 Climbing Boston Center
09:05AM 42.3619 -71.5581 244° Southwest 278 320 13,600 2,400 Climbing Boston Center
09:06AM 42.3214 -71.6658 243° Southwest 307 353 15,900 1,140 Climbing Boston Center
09:07AM 42.2808 -71.7778 244° Southwest 330 380 16,000  Climbing Boston Center
09:08AM 42.2353 -71.8997 243° Southwest 362 417 16,000  Level Boston Center
09:09AM 42.1858 -72.0319 243° Southwest 373 429 16,000  Level Boston Center
09:10AM 42.1408 -72.1536 244° Southwest 365 420 16,000  Level Boston Center
09:11AM 42.0956 -72.2753 243° Southwest 364 419 16,000  Level Boston Center
09:12AM 42.0506 -72.3972 244° Southwest 365 420 16,000  Level Boston Center
09:13AM 42.0050 -72.5194 243° Southwest 367 422 16,000  Level Boston Center
09:14AM 41.9592 -72.6442 244° Southwest 366 421 16,000  Level Boston Center
09:15AM 41.9092 -72.7642 241° Southwest 363 418 16,000 -600 Level Boston Center
09:16AM 41.8631 -72.8783 242° Southwest 344 396 14,900 -1,020 Descending Boston Center
09:17AM 41.8208 -72.9797 241° Southwest 316 364 14,000 -480 Descending Boston Center
09:18AM 41.7742 -73.0911 241° Southwest 320 368 14,000  Level Boston Center
09:19AM 41.7306 -73.1953 241° Southwest 323 372 14,000  Level Boston Center
09:20AM 41.6881 -73.2964 241° Southwest 312 359 14,000 -480 Level Boston Center
09:21AM 41.6528 -73.3856 242° Southwest 277 319 13,100 -1,080 Descending Boston Center
09:22AM 41.6503 -73.4881 268° West 277 319 11,900 -1,260 Descending Boston Center
09:23AM 41.6442 -73.5853 265° West 264 304 10,600 -1,260 Descending Boston Center
09:24AM 41.6342 -73.6836 262° West 251 289 9,400 -1,140 Descending Boston Center
09:25AM 41.6236 -73.7714 261° West 242 278 8,300 -1,140 Descending Boston Center
09:26AM 41.6000 -73.8000 222° Southwest 236 272 7,600 -840 Descending New York TRACON
09:27AM 41.5333 -73.7833 169° South 250 288 7,000 -300 Descending New York TRACON
09:28AM 41.4667 -73.7667 169° South 236 272 7,000  Level New York TRACON
09:29AM 41.4000 -73.7333 159° South 242 278 7,000 -600 Level New York TRACON
09:30AM 41.3500 -73.7000 153° Southeast 243 280 5,900 -1,140 Descending New York TRACON
09:31AM 41.2833 -73.6667 159° South 216 249 4,800 -1,080 Descending New York TRACON
09:31AM 41.2333 -73.6500 166° South 207 238 3,900 -960 Descending New York TRACON
09:32AM 41.1833 -73.6333 166° South 215 247 3,000 -480 Descending New York TRACON
09:33AM 41.1333 -73.5833 143° Southeast 220 253 3,000 -420 Level New York TRACON
09:34AM 41.0667 -73.5667 169° South 217 250 2,200 -540 Descending New York TRACON
09:35AM 41.0167 -73.5500 166° South 208 239 2,000 -120 Descending New York TRACON
09:36AM 40.9667 -73.5500 180° South 186 214 2,000  Level New York TRACON
09:37AM 40.9333 -73.5667 201° Southwest 178 205 2,000  Level New York TRACON
09:38AM 40.9500 -73.6167 294° West 170 196 2,000  Level New York TRACON
09:39AM 40.9833 -73.6500 323° Northwest 173 199 2,000 -420 Level New York TRACON
09:40AM 41.0167 -73.6667 339° North 145 167 1,300 -720 Descending New York TRACON
09:41AM 41.0500 -73.7000 323° Northwest 119 137 600 -720 Descending New York TRACON